sensor_id;sensor_type;location;lat;lon;timestamp;temperature;humidity
63283;DHT22;49407;51.388;0.048;2022-08-19T00:07:05;21.10;90.80
63283;DHT22;49407;51.388;0.048;2022-08-19T00:09:52;21.10;90.70
63283;DHT22;49407;51.388;0.048;2022-08-19T00:13:05;21.20;90.90
63283;DHT22;49407;51.388;0.048;2022-08-19T00:23:23;21.20;91.20
63283;DHT22;49407;51.388;0.048;2022-08-19T00:26:43;21.20;91.20
63283;DHT22;49407;51.388;0.048;2022-08-19T00:30:20;21.20;91.40
63283;DHT22;49407;51.388;0.048;2022-08-19T00:42:57;21.20;91.70
63283;DHT22;49407;51.388;0.048;2022-08-19T00:46:01;21.20;91.90
63283;DHT22;49407;51.388;0.048;2022-08-19T00:50:01;21.20;92.00
63283;DHT22;49407;51.388;0.048;2022-08-19T00:52:47;21.20;92.10
63283;DHT22;49407;51.388;0.048;2022-08-19T01:03:13;21.30;92.40
63283;DHT22;49407;51.388;0.048;2022-08-19T01:06:43;21.30;92.50
63283;DHT22;49407;51.388;0.048;2022-08-19T01:09:16;21.30;92.60
63283;DHT22;49407;51.388;0.048;2022-08-19T01:11:59;21.20;92.80
63283;DHT22;49407;51.388;0.048;2022-08-19T01:14:33;21.20;93.00
63283;DHT22;49407;51.388;0.048;2022-08-19T01:17:11;21.20;93.10
63283;DHT22;49407;51.388;0.048;2022-08-19T01:19:52;21.20;93.10
63283;DHT22;49407;51.388;0.048;2022-08-19T01:22:30;21.20;93.10
63283;DHT22;49407;51.388;0.048;2022-08-19T01:25:26;21.20;93.30
63283;DHT22;49407;51.388;0.048;2022-08-19T01:28:06;21.20;93.30
63283;DHT22;49407;51.388;0.048;2022-08-19T01:30:51;21.20;93.40
63283;DHT22;49407;51.388;0.048;2022-08-19T01:33:24;21.20;93.40
63283;DHT22;49407;51.388;0.048;2022-08-19T01:35:52;21.20;93.50
63283;DHT22;49407;51.388;0.048;2022-08-19T01:38:53;21.20;93.60
63283;DHT22;49407;51.388;0.048;2022-08-19T01:41:47;21.20;93.80
63283;DHT22;49407;51.388;0.048;2022-08-19T01:44:31;21.30;93.70
63283;DHT22;49407;51.388;0.048;2022-08-19T01:46:59;21.30;93.70
63283;DHT22;49407;51.388;0.048;2022-08-19T01:49:32;21.30;93.70
63283;DHT22;49407;51.388;0.048;2022-08-19T01:52:04;21.40;93.70
63283;DHT22;49407;51.388;0.048;2022-08-19T01:54:34;21.30;93.70
63283;DHT22;49407;51.388;0.048;2022-08-19T01:57:14;21.40;93.80
63283;DHT22;49407;51.388;0.048;2022-08-19T02:03:23;21.30;94.00
63283;DHT22;49407;51.388;0.048;2022-08-19T02:06:00;21.30;93.90
63283;DHT22;49407;51.388;0.048;2022-08-19T02:12:25;21.20;94.10
63283;DHT22;49407;51.388;0.048;2022-08-19T02:14:57;21.30;94.10
63283;DHT22;49407;51.388;0.048;2022-08-19T02:17:31;21.30;94.20
63283;DHT22;49407;51.388;0.048;2022-08-19T02:20:03;21.30;94.30
63283;DHT22;49407;51.388;0.048;2022-08-19T02:22:31;21.30;94.20
63283;DHT22;49407;51.388;0.048;2022-08-19T02:25:00;21.30;94.30
63283;DHT22;49407;51.388;0.048;2022-08-19T02:31:16;21.30;94.40
63283;DHT22;49407;51.388;0.048;2022-08-19T02:33:44;21.40;94.60
63283;DHT22;49407;51.388;0.048;2022-08-19T02:36:13;21.40;94.30
63283;DHT22;49407;51.388;0.048;2022-08-19T02:42:06;21.40;94.50
63283;DHT22;49407;51.388;0.048;2022-08-19T02:44:35;21.50;94.50
63283;DHT22;49407;51.388;0.048;2022-08-19T02:47:05;21.50;94.50
63283;DHT22;49407;51.388;0.048;2022-08-19T02:49:37;21.50;94.50
63283;DHT22;49407;51.388;0.048;2022-08-19T02:52:10;21.50;94.50
63283;DHT22;49407;51.388;0.048;2022-08-19T02:54:45;21.50;94.50
63283;DHT22;49407;51.388;0.048;2022-08-19T02:57:19;21.50;94.50
63283;DHT22;49407;51.388;0.048;2022-08-19T02:59:50;21.50;94.60
63283;DHT22;49407;51.388;0.048;2022-08-19T03:02:21;21.50;94.60
63283;DHT22;49407;51.388;0.048;2022-08-19T03:04:51;21.50;94.60
63283;DHT22;49407;51.388;0.048;2022-08-19T03:10:16;21.50;94.80
63283;DHT22;49407;51.388;0.048;2022-08-19T03:12:55;21.50;94.70
63283;DHT22;49407;51.388;0.048;2022-08-19T03:15:26;21.50;94.70
63283;DHT22;49407;51.388;0.048;2022-08-19T03:17:57;21.50;94.80
63283;DHT22;49407;51.388;0.048;2022-08-19T03:20:25;21.50;94.80
63283;DHT22;49407;51.388;0.048;2022-08-19T03:22:52;21.50;94.90
63283;DHT22;49407;51.388;0.048;2022-08-19T03:25:20;21.50;94.90
63283;DHT22;49407;51.388;0.048;2022-08-19T03:30:39;21.50;95.10
63283;DHT22;49407;51.388;0.048;2022-08-19T03:33:10;21.50;95.00
63283;DHT22;49407;51.388;0.048;2022-08-19T03:35:43;21.50;95.00
63283;DHT22;49407;51.388;0.048;2022-08-19T03:41:47;21.50;95.20
63283;DHT22;49407;51.388;0.048;2022-08-19T03:44:43;21.50;95.10
63283;DHT22;49407;51.388;0.048;2022-08-19T03:47:17;21.60;95.10
63283;DHT22;49407;51.388;0.048;2022-08-19T03:52:54;21.40;95.50
63283;DHT22;49407;51.388;0.048;2022-08-19T03:55:21;21.30;95.70
63283;DHT22;49407;51.388;0.048;2022-08-19T03:57:53;21.20;96.00
63283;DHT22;49407;51.388;0.048;2022-08-19T04:00:25;21.10;96.30
63283;DHT22;49407;51.388;0.048;2022-08-19T04:02:53;21.10;96.50
63283;DHT22;49407;51.388;0.048;2022-08-19T04:05:28;21.00;96.80
63283;DHT22;49407;51.388;0.048;2022-08-19T04:11:01;20.90;97.30
63283;DHT22;49407;51.388;0.048;2022-08-19T04:13:33;20.90;97.20
63283;DHT22;49407;51.388;0.048;2022-08-19T04:16:00;20.90;97.40
63283;DHT22;49407;51.388;0.048;2022-08-19T04:22:45;20.80;97.80
63283;DHT22;49407;51.388;0.048;2022-08-19T04:25:13;20.90;97.80
63283;DHT22;49407;51.388;0.048;2022-08-19T04:27:42;20.80;98.00
63283;DHT22;49407;51.388;0.048;2022-08-19T04:30:13;20.80;98.20
63283;DHT22;49407;51.388;0.048;2022-08-19T04:32:41;20.80;98.40
63283;DHT22;49407;51.388;0.048;2022-08-19T04:35:13;20.80;98.50
63283;DHT22;49407;51.388;0.048;2022-08-19T04:37:49;20.80;98.70
63283;DHT22;49407;51.388;0.048;2022-08-19T04:40:16;20.80;98.90
63283;DHT22;49407;51.388;0.048;2022-08-19T04:43:01;20.90;99.00
63283;DHT22;49407;51.388;0.048;2022-08-19T04:45:28;20.80;99.10
63283;DHT22;49407;51.388;0.048;2022-08-19T04:48:11;20.80;99.30
63283;DHT22;49407;51.388;0.048;2022-08-19T04:50:55;20.90;99.50
63283;DHT22;49407;51.388;0.048;2022-08-19T04:53:30;20.90;99.60
63283;DHT22;49407;51.388;0.048;2022-08-19T04:56:09;20.90;99.80
63283;DHT22;49407;51.388;0.048;2022-08-19T04:58:41;20.90;99.90
63283;DHT22;49407;51.388;0.048;2022-08-19T05:01:12;20.90;99.90
63283;DHT22;49407;51.388;0.048;2022-08-19T05:03:39;20.90;99.90
63283;DHT22;49407;51.388;0.048;2022-08-19T05:06:09;20.80;99.90
63283;DHT22;49407;51.388;0.048;2022-08-19T05:09:08;20.80;99.90
63283;DHT22;49407;51.388;0.048;2022-08-19T05:11:37;20.80;99.90
63283;DHT22;49407;51.388;0.048;2022-08-19T05:14:06;20.80;99.90
63283;DHT22;49407;51.388;0.048;2022-08-19T05:16:34;20.80;99.90
63283;DHT22;49407;51.388;0.048;2022-08-19T05:19:05;20.90;99.90
63283;DHT22;49407;51.388;0.048;2022-08-19T05:21:50;20.80;99.90
63283;DHT22;49407;51.388;0.048;2022-08-19T05:24:38;20.90;99.90
63283;DHT22;49407;51.388;0.048;2022-08-19T05:27:25;20.90;99.90
63283;DHT22;49407;51.388;0.048;2022-08-19T05:29:53;20.90;99.90
63283;DHT22;49407;51.388;0.048;2022-08-19T05:32:22;20.90;99.90
63283;DHT22;49407;51.388;0.048;2022-08-19T05:34:50;20.90;99.90
63283;DHT22;49407;51.388;0.048;2022-08-19T05:37:17;20.90;99.90
63283;DHT22;49407;51.388;0.048;2022-08-19T05:39:46;20.90;99.90
63283;DHT22;49407;51.388;0.048;2022-08-19T05:42:17;20.90;99.90
63283;DHT22;49407;51.388;0.048;2022-08-19T05:44:46;21.00;99.90
63283;DHT22;49407;51.388;0.048;2022-08-19T05:47:16;20.90;99.90
63283;DHT22;49407;51.388;0.048;2022-08-19T05:49:43;20.90;99.90
63283;DHT22;49407;51.388;0.048;2022-08-19T05:52:13;20.90;99.90
63283;DHT22;49407;51.388;0.048;2022-08-19T05:54:44;20.90;99.90
63283;DHT22;49407;51.388;0.048;2022-08-19T05:57:18;21.00;99.90
63283;DHT22;49407;51.388;0.048;2022-08-19T05:59:48;21.10;99.90
63283;DHT22;49407;51.388;0.048;2022-08-19T06:02:28;21.20;99.90
63283;DHT22;49407;51.388;0.048;2022-08-19T06:04:57;21.30;99.90
63283;DHT22;49407;51.388;0.048;2022-08-19T06:07:24;21.40;99.90
63283;DHT22;49407;51.388;0.048;2022-08-19T06:09:52;21.40;99.90
63283;DHT22;49407;51.388;0.048;2022-08-19T06:12:31;21.50;99.90
63283;DHT22;49407;51.388;0.048;2022-08-19T06:15:09;21.60;99.90
63283;DHT22;49407;51.388;0.048;2022-08-19T06:17:36;21.60;99.90
63283;DHT22;49407;51.388;0.048;2022-08-19T06:20:07;21.60;99.90
63283;DHT22;49407;51.388;0.048;2022-08-19T06:22:43;21.60;99.90
63283;DHT22;49407;51.388;0.048;2022-08-19T06:25:12;21.60;99.90
63283;DHT22;49407;51.388;0.048;2022-08-19T06:28:05;21.70;99.90
63283;DHT22;49407;51.388;0.048;2022-08-19T06:30:41;21.70;99.90
63283;DHT22;49407;51.388;0.048;2022-08-19T06:33:08;21.70;99.90
63283;DHT22;49407;51.388;0.048;2022-08-19T06:35:39;21.70;99.90
63283;DHT22;49407;51.388;0.048;2022-08-19T06:38:07;21.70;99.90
63283;DHT22;49407;51.388;0.048;2022-08-19T06:40:39;21.70;99.90
63283;DHT22;49407;51.388;0.048;2022-08-19T06:43:31;21.70;99.90
63283;DHT22;49407;51.388;0.048;2022-08-19T06:46:02;21.70;99.90
63283;DHT22;49407;51.388;0.048;2022-08-19T06:48:36;21.70;99.90
63283;DHT22;49407;51.388;0.048;2022-08-19T06:51:15;21.70;99.90
63283;DHT22;49407;51.388;0.048;2022-08-19T06:53:51;21.70;99.90
63283;DHT22;49407;51.388;0.048;2022-08-19T06:56:26;21.70;99.90
63283;DHT22;49407;51.388;0.048;2022-08-19T06:59:10;21.70;99.90
63283;DHT22;49407;51.388;0.048;2022-08-19T07:01:41;21.70;99.90
63283;DHT22;49407;51.388;0.048;2022-08-19T07:04:09;21.60;99.90
63283;DHT22;49407;51.388;0.048;2022-08-19T07:06:39;21.60;99.90
63283;DHT22;49407;51.388;0.048;2022-08-19T07:12:51;21.70;99.90
63283;DHT22;49407;51.388;0.048;2022-08-19T07:15:18;21.80;99.90
63283;DHT22;49407;51.388;0.048;2022-08-19T07:18:19;21.80;99.90
63283;DHT22;49407;51.388;0.048;2022-08-19T07:20:47;21.90;99.80
63283;DHT22;49407;51.388;0.048;2022-08-19T07:23:14;21.90;99.60
63283;DHT22;49407;51.388;0.048;2022-08-19T07:25:43;21.90;99.60
63283;DHT22;49407;51.388;0.048;2022-08-19T07:28:35;22.00;99.10
63283;DHT22;49407;51.388;0.048;2022-08-19T07:31:20;21.90;99.50
63283;DHT22;49407;51.388;0.048;2022-08-19T07:33:51;22.00;99.80
63283;DHT22;49407;51.388;0.048;2022-08-19T07:36:23;22.10;99.60
63283;DHT22;49407;51.388;0.048;2022-08-19T07:39:21;22.10;99.50
63283;DHT22;49407;51.388;0.048;2022-08-19T07:41:48;22.10;99.30
63283;DHT22;49407;51.388;0.048;2022-08-19T07:44:18;22.10;99.20
63283;DHT22;49407;51.388;0.048;2022-08-19T07:46:49;22.10;99.40
63283;DHT22;49407;51.388;0.048;2022-08-19T07:49:21;22.20;98.80
63283;DHT22;49407;51.388;0.048;2022-08-19T07:52:01;22.30;98.80
63283;DHT22;49407;51.388;0.048;2022-08-19T07:54:31;22.50;98.40
63283;DHT22;49407;51.388;0.048;2022-08-19T07:57:02;22.70;96.60
63283;DHT22;49407;51.388;0.048;2022-08-19T08:03:28;22.90;96.80
63283;DHT22;49407;51.388;0.048;2022-08-19T08:06:14;23.00;96.10
63283;DHT22;49407;51.388;0.048;2022-08-19T08:09:23;23.10;96.50
63283;DHT22;49407;51.388;0.048;2022-08-19T08:11:58;23.20;95.40
63283;DHT22;49407;51.388;0.048;2022-08-19T08:14:42;23.40;95.00
63283;DHT22;49407;51.388;0.048;2022-08-19T08:17:17;23.40;94.10
63283;DHT22;49407;51.388;0.048;2022-08-19T08:20:12;23.50;93.60
63283;DHT22;49407;51.388;0.048;2022-08-19T08:22:50;23.60;93.90
63283;DHT22;49407;51.388;0.048;2022-08-19T08:25:41;23.70;92.80
63283;DHT22;49407;51.388;0.048;2022-08-19T08:28:22;24.00;93.30
63283;DHT22;49407;51.388;0.048;2022-08-19T08:31:07;24.20;93.00
63283;DHT22;49407;51.388;0.048;2022-08-19T08:33:35;24.40;92.60
63283;DHT22;49407;51.388;0.048;2022-08-19T08:36:05;24.50;92.60
63283;DHT22;49407;51.388;0.048;2022-08-19T08:42:32;24.90;92.10
63283;DHT22;49407;51.388;0.048;2022-08-19T08:45:13;25.10;92.00
63283;DHT22;49407;51.388;0.048;2022-08-19T08:47:49;25.30;91.50
63283;DHT22;49407;51.388;0.048;2022-08-19T08:50:29;25.40;90.40
63283;DHT22;49407;51.388;0.048;2022-08-19T08:53:03;25.50;89.40
63283;DHT22;49407;51.388;0.048;2022-08-19T08:55:33;25.60;89.20
63283;DHT22;49407;51.388;0.048;2022-08-19T09:01:26;25.50;87.10
63283;DHT22;49407;51.388;0.048;2022-08-19T09:04:03;25.40;86.90
63283;DHT22;49407;51.388;0.048;2022-08-19T09:06:50;25.30;85.20
63283;DHT22;49407;51.388;0.048;2022-08-19T09:09:45;25.10;84.40
63283;DHT22;49407;51.388;0.048;2022-08-19T09:15:13;24.70;84.80
63283;DHT22;49407;51.388;0.048;2022-08-19T09:21:50;24.30;85.80
63283;DHT22;49407;51.388;0.048;2022-08-19T09:24:25;24.50;86.50
63283;DHT22;49407;51.388;0.048;2022-08-19T09:30:31;25.00;83.70
63283;DHT22;49407;51.388;0.048;2022-08-19T09:36:03;25.60;80.20
63283;DHT22;49407;51.388;0.048;2022-08-19T09:43:31;26.00;79.00
63283;DHT22;49407;51.388;0.048;2022-08-19T09:46:48;26.10;78.60
63283;DHT22;49407;51.388;0.048;2022-08-19T09:49:55;26.30;77.80
63283;DHT22;49407;51.388;0.048;2022-08-19T09:52:39;26.40;77.20
63283;DHT22;49407;51.388;0.048;2022-08-19T09:55:25;26.50;77.00
63283;DHT22;49407;51.388;0.048;2022-08-19T09:58:03;26.60;73.90
63283;DHT22;49407;51.388;0.048;2022-08-19T10:00:31;26.80;73.50
63283;DHT22;49407;51.388;0.048;2022-08-19T10:02:58;27.00;73.50
63283;DHT22;49407;51.388;0.048;2022-08-19T10:05:25;27.10;71.70
63283;DHT22;49407;51.388;0.048;2022-08-19T10:08:20;27.20;72.10
63283;DHT22;49407;51.388;0.048;2022-08-19T10:10:52;27.40;72.00
63283;DHT22;49407;51.388;0.048;2022-08-19T10:13:22;27.70;71.30
63283;DHT22;49407;51.388;0.048;2022-08-19T10:15:57;27.80;69.30
63283;DHT22;49407;51.388;0.048;2022-08-19T10:18:34;28.00;68.00
63283;DHT22;49407;51.388;0.048;2022-08-19T10:21:28;28.00;67.00
63283;DHT22;49407;51.388;0.048;2022-08-19T10:24:00;28.00;66.10
63283;DHT22;49407;51.388;0.048;2022-08-19T10:26:33;28.10;66.30
63283;DHT22;49407;51.388;0.048;2022-08-19T10:29:22;28.10;66.00
63283;DHT22;49407;51.388;0.048;2022-08-19T10:32:04;28.20;64.80
63283;DHT22;49407;51.388;0.048;2022-08-19T10:34:37;28.20;64.90
63283;DHT22;49407;51.388;0.048;2022-08-19T10:37:16;28.10;64.40
63283;DHT22;49407;51.388;0.048;2022-08-19T10:39:55;27.90;65.30
63283;DHT22;49407;51.388;0.048;2022-08-19T10:42:22;27.70;65.40
63283;DHT22;49407;51.388;0.048;2022-08-19T10:44:49;27.60;64.90
63283;DHT22;49407;51.388;0.048;2022-08-19T10:47:17;27.30;65.40
63283;DHT22;49407;51.388;0.048;2022-08-19T10:49:53;27.00;65.60
63283;DHT22;49407;51.388;0.048;2022-08-19T10:52:41;26.80;65.30
63283;DHT22;49407;51.388;0.048;2022-08-19T10:55:18;26.60;65.90
63283;DHT22;49407;51.388;0.048;2022-08-19T10:58:11;26.40;66.60
63283;DHT22;49407;51.388;0.048;2022-08-19T11:00:39;26.30;67.30
63283;DHT22;49407;51.388;0.048;2022-08-19T11:03:07;26.20;67.20
63283;DHT22;49407;51.388;0.048;2022-08-19T11:05:35;26.10;67.70
63283;DHT22;49407;51.388;0.048;2022-08-19T11:08:27;25.90;67.90
63283;DHT22;49407;51.388;0.048;2022-08-19T11:10:54;25.80;67.70
63283;DHT22;49407;51.388;0.048;2022-08-19T11:13:24;25.80;68.10
63283;DHT22;49407;51.388;0.048;2022-08-19T11:16:06;25.70;68.50
63283;DHT22;49407;51.388;0.048;2022-08-19T11:18:39;25.70;68.40
63283;DHT22;49407;51.388;0.048;2022-08-19T11:23:34;25.90;68.40
63283;DHT22;49407;51.388;0.048;2022-08-19T11:26:02;26.00;68.60
63283;DHT22;49407;51.388;0.048;2022-08-19T11:28:31;26.20;67.60
63283;DHT22;49407;51.388;0.048;2022-08-19T11:30:59;26.30;67.70
63283;DHT22;49407;51.388;0.048;2022-08-19T11:33:26;26.50;67.70
63283;DHT22;49407;51.388;0.048;2022-08-19T11:35:53;26.60;67.00
63283;DHT22;49407;51.388;0.048;2022-08-19T11:38:40;26.80;66.70
63283;DHT22;49407;51.388;0.048;2022-08-19T11:41:08;26.90;65.70
63283;DHT22;49407;51.388;0.048;2022-08-19T11:43:36;27.00;65.20
63283;DHT22;49407;51.388;0.048;2022-08-19T11:46:08;26.80;65.50
63283;DHT22;49407;51.388;0.048;2022-08-19T11:48:37;26.80;66.00
63283;DHT22;49407;51.388;0.048;2022-08-19T11:51:07;26.90;66.40
63283;DHT22;49407;51.388;0.048;2022-08-19T11:53:35;27.00;65.90
63283;DHT22;49407;51.388;0.048;2022-08-19T11:56:04;27.00;65.60
63283;DHT22;49407;51.388;0.048;2022-08-19T11:58:36;26.90;64.60
63283;DHT22;49407;51.388;0.048;2022-08-19T12:01:08;26.80;64.80
63283;DHT22;49407;51.388;0.048;2022-08-19T12:03:36;26.70;64.70
63283;DHT22;49407;51.388;0.048;2022-08-19T12:06:09;26.60;64.90
63283;DHT22;49407;51.388;0.048;2022-08-19T12:12:02;26.70;64.00
63283;DHT22;49407;51.388;0.048;2022-08-19T12:14:29;26.70;62.60
63283;DHT22;49407;51.388;0.048;2022-08-19T12:16:58;26.70;62.90
63283;DHT22;49407;51.388;0.048;2022-08-19T12:23:13;26.80;61.20
63283;DHT22;49407;51.388;0.048;2022-08-19T12:25:46;26.90;61.50
63283;DHT22;49407;51.388;0.048;2022-08-19T12:28:17;26.90;61.30
63283;DHT22;49407;51.388;0.048;2022-08-19T12:30:45;27.10;59.80
63283;DHT22;49407;51.388;0.048;2022-08-19T12:33:12;27.20;58.70
63283;DHT22;49407;51.388;0.048;2022-08-19T12:35:41;27.20;58.50
63283;DHT22;49407;51.388;0.048;2022-08-19T12:38:14;27.20;58.80
63283;DHT22;49407;51.388;0.048;2022-08-19T12:40:41;27.20;58.80
63283;DHT22;49407;51.388;0.048;2022-08-19T12:43:11;27.20;58.40
63283;DHT22;49407;51.388;0.048;2022-08-19T12:45:38;27.40;59.10
63283;DHT22;49407;51.388;0.048;2022-08-19T12:48:10;27.50;58.50
63283;DHT22;49407;51.388;0.048;2022-08-19T12:50:57;27.40;57.90
63283;DHT22;49407;51.388;0.048;2022-08-19T12:53:24;27.30;57.60
63283;DHT22;49407;51.388;0.048;2022-08-19T12:55:56;27.10;57.10
63283;DHT22;49407;51.388;0.048;2022-08-19T12:58:24;26.90;56.50
63283;DHT22;49407;51.388;0.048;2022-08-19T13:00:53;27.00;56.20
63283;DHT22;49407;51.388;0.048;2022-08-19T13:03:20;27.50;55.70
63283;DHT22;49407;51.388;0.048;2022-08-19T13:05:50;28.10;54.40
63283;DHT22;49407;51.388;0.048;2022-08-19T13:08:17;28.60;52.30
63283;DHT22;49407;51.388;0.048;2022-08-19T13:10:44;29.00;49.90
63283;DHT22;49407;51.388;0.048;2022-08-19T13:13:11;29.40;48.90
63283;DHT22;49407;51.388;0.048;2022-08-19T13:15:40;29.80;48.40
63283;DHT22;49407;51.388;0.048;2022-08-19T13:18:27;30.00;48.00
63283;DHT22;49407;51.388;0.048;2022-08-19T13:20:54;30.40;46.90
63283;DHT22;49407;51.388;0.048;2022-08-19T13:23:21;31.20;45.60
63283;DHT22;49407;51.388;0.048;2022-08-19T13:26:02;32.10;44.70
63283;DHT22;49407;51.388;0.048;2022-08-19T13:28:31;33.10;44.00
63283;DHT22;49407;51.388;0.048;2022-08-19T13:31:20;33.70;43.10
63283;DHT22;49407;51.388;0.048;2022-08-19T13:34:07;34.40;41.90
63283;DHT22;49407;51.388;0.048;2022-08-19T13:36:35;35.10;40.90
63283;DHT22;49407;51.388;0.048;2022-08-19T13:39:04;35.60;40.10
63283;DHT22;49407;51.388;0.048;2022-08-19T13:41:32;35.60;39.40
63283;DHT22;49407;51.388;0.048;2022-08-19T13:44:00;35.30;38.90
63283;DHT22;49407;51.388;0.048;2022-08-19T13:46:28;35.00;38.60
63283;DHT22;49407;51.388;0.048;2022-08-19T13:48:57;34.90;38.50
63283;DHT22;49407;51.388;0.048;2022-08-19T13:51:24;34.70;38.10
63283;DHT22;49407;51.388;0.048;2022-08-19T13:53:51;34.10;38.50
63283;DHT22;49407;51.388;0.048;2022-08-19T13:56:19;33.80;38.80
63283;DHT22;49407;51.388;0.048;2022-08-19T13:58:56;34.30;38.40
63283;DHT22;49407;51.388;0.048;2022-08-19T14:01:25;35.20;37.50
63283;DHT22;49407;51.388;0.048;2022-08-19T14:03:53;36.00;37.10
63283;DHT22;49407;51.388;0.048;2022-08-19T14:06:20;36.60;35.80
63283;DHT22;49407;51.388;0.048;2022-08-19T14:08:50;37.10;36.60
63283;DHT22;49407;51.388;0.048;2022-08-19T14:11:19;37.60;35.40
63283;DHT22;49407;51.388;0.048;2022-08-19T14:13:46;38.10;34.50
63283;DHT22;49407;51.388;0.048;2022-08-19T14:16:13;38.40;34.00
63283;DHT22;49407;51.388;0.048;2022-08-19T14:18:42;38.60;32.70
63283;DHT22;49407;51.388;0.048;2022-08-19T14:21:21;38.60;32.90
63283;DHT22;49407;51.388;0.048;2022-08-19T14:23:49;38.80;32.30
63283;DHT22;49407;51.388;0.048;2022-08-19T14:26:19;39.00;32.10
63283;DHT22;49407;51.388;0.048;2022-08-19T14:31:55;39.00;31.10
63283;DHT22;49407;51.388;0.048;2022-08-19T14:34:26;39.10;30.20
63283;DHT22;49407;51.388;0.048;2022-08-19T14:36:53;39.10;30.00
63283;DHT22;49407;51.388;0.048;2022-08-19T14:39:21;39.00;29.80
63283;DHT22;49407;51.388;0.048;2022-08-19T14:41:48;39.00;29.70
63283;DHT22;49407;51.388;0.048;2022-08-19T14:44:15;39.00;29.40
63283;DHT22;49407;51.388;0.048;2022-08-19T14:46:42;39.00;29.10
63283;DHT22;49407;51.388;0.048;2022-08-19T14:49:16;38.90;28.80
63283;DHT22;49407;51.388;0.048;2022-08-19T14:51:43;38.90;29.30
63283;DHT22;49407;51.388;0.048;2022-08-19T14:54:12;39.10;28.80
63283;DHT22;49407;51.388;0.048;2022-08-19T14:56:40;39.20;28.50
63283;DHT22;49407;51.388;0.048;2022-08-19T15:01:58;38.50;28.30
63283;DHT22;49407;51.388;0.048;2022-08-19T15:04:46;38.50;28.20
63283;DHT22;49407;51.388;0.048;2022-08-19T15:07:24;38.60;27.80
63283;DHT22;49407;51.388;0.048;2022-08-19T15:09:54;38.80;28.00
63283;DHT22;49407;51.388;0.048;2022-08-19T15:12:21;39.10;27.90
63283;DHT22;49407;51.388;0.048;2022-08-19T15:14:49;39.30;27.30
63283;DHT22;49407;51.388;0.048;2022-08-19T15:17:22;39.40;27.20
63283;DHT22;49407;51.388;0.048;2022-08-19T15:20:11;39.50;27.10
63283;DHT22;49407;51.388;0.048;2022-08-19T15:22:39;39.40;26.70
63283;DHT22;49407;51.388;0.048;2022-08-19T15:25:08;39.40;26.80
63283;DHT22;49407;51.388;0.048;2022-08-19T15:27:41;39.50;26.90
63283;DHT22;49407;51.388;0.048;2022-08-19T15:30:10;39.50;26.60
63283;DHT22;49407;51.388;0.048;2022-08-19T15:32:38;39.50;26.40
63283;DHT22;49407;51.388;0.048;2022-08-19T15:35:08;39.60;26.40
63283;DHT22;49407;51.388;0.048;2022-08-19T15:37:35;39.70;26.60
63283;DHT22;49407;51.388;0.048;2022-08-19T15:40:04;39.90;26.60
63283;DHT22;49407;51.388;0.048;2022-08-19T15:42:32;40.10;26.40
63283;DHT22;49407;51.388;0.048;2022-08-19T15:44:59;40.10;26.40
63283;DHT22;49407;51.388;0.048;2022-08-19T15:47:29;40.00;26.40
63283;DHT22;49407;51.388;0.048;2022-08-19T15:50:21;39.80;26.40
63283;DHT22;49407;51.388;0.048;2022-08-19T15:52:59;39.80;26.80
63283;DHT22;49407;51.388;0.048;2022-08-19T15:55:29;39.80;26.90
63283;DHT22;49407;51.388;0.048;2022-08-19T15:58:07;40.00;27.00
63283;DHT22;49407;51.388;0.048;2022-08-19T16:01:01;39.90;26.70
63283;DHT22;49407;51.388;0.048;2022-08-19T16:03:50;39.00;26.70
63283;DHT22;49407;51.388;0.048;2022-08-19T16:06:54;37.70;27.20
63283;DHT22;49407;51.388;0.048;2022-08-19T16:12:46;34.80;28.80
63283;DHT22;49407;51.388;0.048;2022-08-19T16:15:13;33.70;29.60
63283;DHT22;49407;51.388;0.048;2022-08-19T16:17:41;32.90;30.00
63283;DHT22;49407;51.388;0.048;2022-08-19T16:20:09;32.30;30.50
63283;DHT22;49407;51.388;0.048;2022-08-19T16:22:39;31.70;31.10
63283;DHT22;49407;51.388;0.048;2022-08-19T16:25:07;31.30;31.60
63283;DHT22;49407;51.388;0.048;2022-08-19T16:27:40;30.90;32.10
63283;DHT22;49407;51.388;0.048;2022-08-19T16:30:27;30.50;32.70
63283;DHT22;49407;51.388;0.048;2022-08-19T16:32:54;30.10;33.30
63283;DHT22;49407;51.388;0.048;2022-08-19T16:35:21;29.90;33.70
63283;DHT22;49407;51.388;0.048;2022-08-19T16:37:53;29.60;34.00
63283;DHT22;49407;51.388;0.048;2022-08-19T16:40:21;29.30;34.30
63283;DHT22;49407;51.388;0.048;2022-08-19T16:42:48;29.10;34.50
63283;DHT22;49407;51.388;0.048;2022-08-19T16:45:15;28.90;34.80
63283;DHT22;49407;51.388;0.048;2022-08-19T16:47:45;28.70;35.00
63283;DHT22;49407;51.388;0.048;2022-08-19T16:50:12;28.50;35.40
63283;DHT22;49407;51.388;0.048;2022-08-19T16:52:54;28.30;35.90
63283;DHT22;49407;51.388;0.048;2022-08-19T16:55:24;28.20;36.20
63283;DHT22;49407;51.388;0.048;2022-08-19T16:58:13;28.10;36.50
63283;DHT22;49407;51.388;0.048;2022-08-19T17:00:40;28.00;36.80
63283;DHT22;49407;51.388;0.048;2022-08-19T17:03:08;28.00;36.80
63283;DHT22;49407;51.388;0.048;2022-08-19T17:05:42;27.90;36.80
63283;DHT22;49407;51.388;0.048;2022-08-19T17:08:09;27.80;36.90
63283;DHT22;49407;51.388;0.048;2022-08-19T17:10:36;27.70;37.10
63283;DHT22;49407;51.388;0.048;2022-08-19T17:13:04;27.60;37.20
63283;DHT22;49407;51.388;0.048;2022-08-19T17:15:32;27.50;37.50
63283;DHT22;49407;51.388;0.048;2022-08-19T17:18:01;27.30;37.70
63283;DHT22;49407;51.388;0.048;2022-08-19T17:20:30;27.20;37.90
63283;DHT22;49407;51.388;0.048;2022-08-19T17:22:57;27.10;38.10
63283;DHT22;49407;51.388;0.048;2022-08-19T17:25:27;27.00;38.40
63283;DHT22;49407;51.388;0.048;2022-08-19T17:27:54;26.90;38.50
63283;DHT22;49407;51.388;0.048;2022-08-19T17:30:22;26.80;38.70
63283;DHT22;49407;51.388;0.048;2022-08-19T17:32:50;26.70;39.00
63283;DHT22;49407;51.388;0.048;2022-08-19T17:35:17;26.60;39.30
63283;DHT22;49407;51.388;0.048;2022-08-19T17:37:50;26.50;39.40
63283;DHT22;49407;51.388;0.048;2022-08-19T17:40:17;26.40;39.70
63283;DHT22;49407;51.388;0.048;2022-08-19T17:42:49;26.30;39.70
63283;DHT22;49407;51.388;0.048;2022-08-19T17:45:16;26.30;39.70
63283;DHT22;49407;51.388;0.048;2022-08-19T17:47:43;26.30;39.80
63283;DHT22;49407;51.388;0.048;2022-08-19T17:50:10;26.20;39.90
63283;DHT22;49407;51.388;0.048;2022-08-19T17:52:38;26.10;40.00
63283;DHT22;49407;51.388;0.048;2022-08-19T17:55:06;26.00;40.10
63283;DHT22;49407;51.388;0.048;2022-08-19T17:57:33;25.90;40.30
63283;DHT22;49407;51.388;0.048;2022-08-19T18:00:00;25.70;40.60
63283;DHT22;49407;51.388;0.048;2022-08-19T18:02:32;25.60;40.80
63283;DHT22;49407;51.388;0.048;2022-08-19T18:05:02;25.60;41.80
63283;DHT22;49407;51.388;0.048;2022-08-19T18:07:29;25.40;41.50
63283;DHT22;49407;51.388;0.048;2022-08-19T18:09:57;25.30;41.70
63283;DHT22;49407;51.388;0.048;2022-08-19T18:12:27;25.10;41.80